createdAt,value
2018-06-23T00:00:03.395Z,12.30
2018-06-23T00:02:32.351Z,12.20
2018-06-23T00:05:01.432Z,12.20
2018-06-23T00:07:30.410Z,12.10
2018-06-23T00:09:59.403Z,12.10
2018-06-23T00:12:28.386Z,12.10
2018-06-23T00:14:57.406Z,12.00
2018-06-23T00:17:26.387Z,12.00
2018-06-23T00:19:55.370Z,12.00
2018-06-23T00:22:24.361Z,12.10
2018-06-23T00:24:53.313Z,12.10
2018-06-23T00:27:22.320Z,12.00
2018-06-23T00:29:51.272Z,12.00
2018-06-23T00:32:20.228Z,12.00
2018-06-23T00:34:49.183Z,11.80
2018-06-23T00:37:18.212Z,11.70
2018-06-23T00:39:47.230Z,11.70
2018-06-23T00:42:16.230Z,11.70
2018-06-23T00:44:45.250Z,11.70
2018-06-23T00:47:14.497Z,11.60
2018-06-23T00:49:43.468Z,11.50
2018-06-23T00:52:12.477Z,11.50
2018-06-23T00:54:41.484Z,11.50
2018-06-23T00:57:10.460Z,11.50
2018-06-23T00:59:43.478Z,11.50
2018-06-23T01:02:12.443Z,11.40
2018-06-23T01:04:41.436Z,11.40
2018-06-23T01:07:11.117Z,11.40
2018-06-23T01:09:40.107Z,11.30
2018-06-23T01:12:09.065Z,11.30
2018-06-23T01:14:38.046Z,11.30
2018-06-23T01:17:08.626Z,11.20
2018-06-23T01:19:37.763Z,11.10
2018-06-23T01:22:06.950Z,11.10
2018-06-23T01:24:36.088Z,11.10
2018-06-23T01:27:05.171Z,11.10
2018-06-23T01:29:34.217Z,11.10
2018-06-23T01:32:03.223Z,11.00
2018-06-23T01:34:32.166Z,10.90
2018-06-23T01:37:01.179Z,10.90
2018-06-23T01:39:30.295Z,10.90
2018-06-23T01:41:59.265Z,10.90
2018-06-23T01:44:28.278Z,10.90
2018-06-23T01:46:57.231Z,10.80
2018-06-23T01:49:26.199Z,10.80
2018-06-23T01:51:55.183Z,10.80
2018-06-23T01:54:24.182Z,10.70
2018-06-23T01:56:53.419Z,10.70
2018-06-23T01:59:22.398Z,10.60
2018-06-23T02:01:51.386Z,10.60
2018-06-23T02:04:20.363Z,10.70
2018-06-23T02:06:49.370Z,10.60
2018-06-23T02:09:18.371Z,10.50
2018-06-23T02:11:47.362Z,10.40
2018-06-23T02:14:21.638Z,10.30
2018-06-23T02:16:56.007Z,10.20
2018-06-23T02:19:30.410Z,10.20
2018-06-23T02:22:04.694Z,10.20
2018-06-23T02:24:39.059Z,10.20
2018-06-23T02:27:13.528Z,10.30
2018-06-23T02:29:47.935Z,10.20
2018-06-23T02:32:22.351Z,10.20
2018-06-23T02:34:56.647Z,10.20
2018-06-23T02:37:25.620Z,10.10
2018-06-23T02:39:54.582Z,10.00
2018-06-23T02:42:23.587Z,9.90
2018-06-23T02:44:52.567Z,9.80
2018-06-23T02:47:21.527Z,9.90
2018-06-23T02:49:51.091Z,9.90
2018-06-23T02:52:20.046Z,9.90
2018-06-23T02:54:48.990Z,9.80
2018-06-23T02:57:18.137Z,9.90
2018-06-23T02:59:47.087Z,9.80
2018-06-23T03:02:16.046Z,9.90
2018-06-23T03:04:45.048Z,9.80
2018-06-23T03:07:14.106Z,9.70
2018-06-23T03:09:43.111Z,9.60
2018-06-23T03:12:12.138Z,9.60
2018-06-23T03:14:41.142Z,9.60
2018-06-23T03:17:14.953Z,9.60
2018-06-23T03:19:45.974Z,9.60
2018-06-23T03:22:14.999Z,9.50
2018-06-23T03:24:44.306Z,9.50
2018-06-23T03:27:13.420Z,9.40
2018-06-23T03:29:42.462Z,9.40
2018-06-23T03:32:12.139Z,9.50
2018-06-23T03:34:41.131Z,9.50
2018-06-23T03:37:10.094Z,9.30
2018-06-23T03:39:39.051Z,9.30
2018-06-23T03:42:08.022Z,9.40
2018-06-23T03:44:36.986Z,9.40
2018-06-23T03:47:06.039Z,9.40
2018-06-23T03:49:34.987Z,9.40
2018-06-23T03:52:04.093Z,9.40
2018-06-23T03:54:33.042Z,9.40
2018-06-23T03:57:01.994Z,9.30
2018-06-23T03:59:31.014Z,9.20
2018-06-23T04:01:59.989Z,9.30
2018-06-23T04:04:28.947Z,9.20
2018-06-23T04:06:57.975Z,9.20
2018-06-23T04:09:26.931Z,9.10
2018-06-23T04:11:55.910Z,9.10
2018-06-23T04:14:24.934Z,9.30
2018-06-23T04:16:53.997Z,9.40
2018-06-23T04:19:22.910Z,9.30
2018-06-23T04:21:52.007Z,9.20
2018-06-23T04:24:20.991Z,9.20
2018-06-23T04:26:50.258Z,9.30
2018-06-23T04:29:19.332Z,9.40
2018-06-23T04:31:48.246Z,9.40
2018-06-23T04:34:17.186Z,9.50
2018-06-23T04:36:46.207Z,9.50
2018-06-23T04:39:15.222Z,9.60
2018-06-23T04:41:44.207Z,9.60
2018-06-23T04:44:13.184Z,9.60
2018-06-23T04:46:42.163Z,9.70
2018-06-23T04:49:11.159Z,9.80
2018-06-23T04:51:40.123Z,9.90
2018-06-23T04:54:09.275Z,10.00
2018-06-23T04:56:38.307Z,9.90
2018-06-23T04:59:07.430Z,10.10
2018-06-23T05:01:36.687Z,10.20
2018-06-23T05:04:05.899Z,10.20
2018-06-23T05:06:34.877Z,10.20
2018-06-23T05:09:05.654Z,10.30
2018-06-23T05:11:34.895Z,10.30
2018-06-23T05:14:04.015Z,10.40
2018-06-23T05:16:33.051Z,10.60
2018-06-23T05:19:02.006Z,10.60
2018-06-23T05:21:30.970Z,10.70
2018-06-23T05:23:59.990Z,10.70
2018-06-23T05:26:28.987Z,10.90
2018-06-23T05:28:57.970Z,11.00
2018-06-23T05:31:26.935Z,11.10
2018-06-23T05:33:55.950Z,11.30
2018-06-23T05:36:25.050Z,11.30
2018-06-23T05:38:54.028Z,11.30
2018-06-23T05:41:23.065Z,11.50
2018-06-23T05:43:52.071Z,11.50
2018-06-23T05:46:21.043Z,11.50
2018-06-23T05:48:50.012Z,11.60
2018-06-23T05:51:19.081Z,11.60
2018-06-23T05:53:48.006Z,11.70
2018-06-23T05:56:17.034Z,11.70
2018-06-23T05:58:46.160Z,11.70
2018-06-23T06:01:16.000Z,11.80
2018-06-23T06:03:45.369Z,12.00
2018-06-23T06:06:14.320Z,11.90
2018-06-23T06:08:43.326Z,11.90
2018-06-23T06:11:12.355Z,12.00
2018-06-23T06:13:41.319Z,12.00
2018-06-23T06:16:10.902Z,11.90
2018-06-23T06:18:39.926Z,12.10
2018-06-23T06:21:09.251Z,12.00
2018-06-23T06:23:38.212Z,12.10
2018-06-23T06:26:07.374Z,12.20
2018-06-23T06:28:36.398Z,11.90
2018-06-23T06:31:05.466Z,12.10
2018-06-23T06:33:34.480Z,12.50
2018-06-23T06:36:03.459Z,12.70
2018-06-23T06:38:32.478Z,12.60
2018-06-23T06:41:01.444Z,12.30
2018-06-23T06:43:30.433Z,12.30
2018-06-23T06:45:59.422Z,12.60
2018-06-23T06:48:28.415Z,12.50
2018-06-23T06:50:57.554Z,12.20
2018-06-23T06:53:26.515Z,12.30
2018-06-23T06:55:55.593Z,12.50
2018-06-23T06:58:24.604Z,12.50
2018-06-23T07:00:53.582Z,12.40
2018-06-23T07:03:22.597Z,12.40
2018-06-23T07:05:51.643Z,12.60
2018-06-23T07:08:20.698Z,12.50
2018-06-23T07:10:49.787Z,12.60
2018-06-23T07:13:18.923Z,12.70
2018-06-23T07:15:47.911Z,13.60
2018-06-23T07:18:16.885Z,15.30
2018-06-23T07:20:45.906Z,16.70
2018-06-23T07:23:14.846Z,17.50
2018-06-23T07:25:43.859Z,16.90
2018-06-23T07:28:12.865Z,16.60
2018-06-23T07:30:41.901Z,16.10
2018-06-23T07:33:10.814Z,15.00
2018-06-23T07:35:39.804Z,14.90
2018-06-23T07:38:08.931Z,15.40
2018-06-23T07:40:37.944Z,15.20
2018-06-23T07:43:06.910Z,14.90
2018-06-23T07:45:35.878Z,14.70
2018-06-23T07:48:05.270Z,14.60
2018-06-23T07:50:34.322Z,14.20
2018-06-23T07:53:03.294Z,14.10
2018-06-23T07:55:32.338Z,14.40
2018-06-23T07:58:01.825Z,14.80
2018-06-23T08:00:30.901Z,14.60
2018-06-23T08:03:00.012Z,14.40
2018-06-23T08:05:28.990Z,14.10
2018-06-23T08:07:58.170Z,14.20
2018-06-23T08:10:27.142Z,14.70
2018-06-23T08:12:56.136Z,14.70
2018-06-23T08:15:25.199Z,14.40
2018-06-23T08:17:54.425Z,14.40
2018-06-23T08:20:23.491Z,14.70
2018-06-23T08:22:52.470Z,15.30
2018-06-23T08:25:21.471Z,17.30
2018-06-23T08:27:50.758Z,18.80
2018-06-23T08:30:20.064Z,20.20
2018-06-23T08:32:49.015Z,20.60
2018-06-23T08:35:17.995Z,19.70
2018-06-23T08:37:47.108Z,19.70
2018-06-23T08:40:16.339Z,18.60
2018-06-23T08:42:45.493Z,19.20
2018-06-23T08:45:14.571Z,18.80
2018-06-23T08:50:14.104Z,18.00
2018-06-23T08:52:43.106Z,17.10
2018-06-23T08:55:12.782Z,18.10
2018-06-23T08:57:41.798Z,18.50
2018-06-23T09:00:10.859Z,18.10
2018-06-23T09:02:39.871Z,18.30
2018-06-23T09:05:08.742Z,18.60
2018-06-23T09:07:37.766Z,19.20
2018-06-23T09:10:06.907Z,19.20
2018-06-23T09:12:35.863Z,18.60
2018-06-23T09:15:04.919Z,18.10
2018-06-23T09:17:33.904Z,17.20
2018-06-23T09:20:02.877Z,16.40
2018-06-23T09:22:31.883Z,16.30
2018-06-23T09:25:00.845Z,15.80
2018-06-23T09:27:29.794Z,16.00
2018-06-23T09:29:58.767Z,15.90
2018-06-23T09:32:27.730Z,15.70
2018-06-23T09:34:56.785Z,15.60
2018-06-23T09:37:25.749Z,15.40
2018-06-23T09:39:55.238Z,15.20
2018-06-23T09:42:24.431Z,15.40
2018-06-23T09:44:53.413Z,15.50
2018-06-23T09:47:22.399Z,15.50
2018-06-23T09:49:51.393Z,15.40
2018-06-23T09:52:20.343Z,15.20
2018-06-23T09:54:49.293Z,15.20
2018-06-23T09:57:18.300Z,15.20
2018-06-23T09:59:47.263Z,15.40
2018-06-23T10:02:16.302Z,15.00
2018-06-23T10:04:45.283Z,15.00
2018-06-23T10:07:14.298Z,14.70
2018-06-23T10:09:43.203Z,14.70
2018-06-23T10:12:12.235Z,14.80
2018-06-23T10:14:41.189Z,14.80
2018-06-23T10:17:10.196Z,14.40
2018-06-23T10:19:39.165Z,14.40
2018-06-23T10:24:35.237Z,14.40
2018-06-23T10:27:04.175Z,14.40
2018-06-23T10:29:33.150Z,14.60
2018-06-23T10:32:02.094Z,14.50
2018-06-23T10:34:31.066Z,14.50
2018-06-23T10:37:00.055Z,14.30
2018-06-23T10:39:29.022Z,14.20
2018-06-23T10:41:57.998Z,14.20
2018-06-23T10:44:26.972Z,14.20
2018-06-23T10:46:55.930Z,14.40
2018-06-23T10:49:24.924Z,14.30
2018-06-23T10:54:31.934Z,14.30
2018-06-23T10:57:00.878Z,14.40
2018-06-23T10:59:29.854Z,14.20
2018-06-23T11:01:58.853Z,14.20
2018-06-23T11:04:27.803Z,14.30
2018-06-23T11:06:57.175Z,14.30
2018-06-23T11:09:26.168Z,14.30
2018-06-23T11:11:55.134Z,14.30
2018-06-23T11:14:24.263Z,14.30
2018-06-23T11:16:53.382Z,14.40
2018-06-23T11:19:22.359Z,14.30
2018-06-23T11:21:51.327Z,14.30
2018-06-23T11:24:20.304Z,14.40
2018-06-23T11:26:49.249Z,14.20
2018-06-23T11:29:18.626Z,14.40
2018-06-23T11:31:47.599Z,14.40
2018-06-23T11:34:16.557Z,14.30
2018-06-23T11:36:45.600Z,14.40
2018-06-23T11:39:14.759Z,14.50
2018-06-23T11:41:43.826Z,14.40
2018-06-23T11:44:12.975Z,14.30
2018-06-23T11:46:41.982Z,14.30
2018-06-23T11:49:10.995Z,14.40
2018-06-23T11:51:39.978Z,14.40
2018-06-23T11:54:09.286Z,14.50
2018-06-23T11:56:38.210Z,14.30
2018-06-23T11:59:07.222Z,14.40
2018-06-23T12:01:36.246Z,14.40
2018-06-23T12:04:05.323Z,14.50
2018-06-23T12:06:34.283Z,14.60
2018-06-23T12:09:04.579Z,14.60
2018-06-23T12:11:33.510Z,14.40
2018-06-23T12:14:02.590Z,14.30
2018-06-23T12:16:31.710Z,14.20
2018-06-23T12:19:00.656Z,14.20
2018-06-23T12:21:29.655Z,14.10
2018-06-23T12:23:58.634Z,14.10
2018-06-23T12:26:27.609Z,13.90
2018-06-23T12:28:56.567Z,13.90
2018-06-23T12:31:25.631Z,13.90
2018-06-23T12:33:54.590Z,14.00
2018-06-23T12:36:23.581Z,14.10
2018-06-23T12:38:52.579Z,14.20
2018-06-23T12:41:21.580Z,14.50
2018-06-23T12:43:50.534Z,14.60
2018-06-23T12:46:19.582Z,14.80
2018-06-23T12:48:48.558Z,14.70
2018-06-23T12:51:17.537Z,14.70
2018-06-23T12:53:46.487Z,14.60
2018-06-23T12:56:15.544Z,14.40
2018-06-23T12:58:44.534Z,14.40
2018-06-23T13:01:13.495Z,14.50
2018-06-23T13:03:42.666Z,14.50
2018-06-23T13:06:11.675Z,14.50
2018-06-23T13:08:40.679Z,14.60
2018-06-23T13:11:09.758Z,14.60
2018-06-23T13:13:38.715Z,14.50
2018-06-23T13:16:07.677Z,14.60
2018-06-23T13:18:36.877Z,14.60
2018-06-23T13:21:05.883Z,14.50
2018-06-23T13:23:35.207Z,14.60
2018-06-23T13:26:06.019Z,14.50
2018-06-23T13:28:35.309Z,14.50
2018-06-23T13:31:04.438Z,14.50
2018-06-23T13:33:33.459Z,14.40
2018-06-23T13:36:02.419Z,14.40
2018-06-23T13:38:31.478Z,14.40
2018-06-23T13:41:04.114Z,14.30
2018-06-23T13:43:33.451Z,14.10
2018-06-23T13:48:31.062Z,14.20
2018-06-23T13:51:00.103Z,14.30
2018-06-23T13:53:29.150Z,14.10
2018-06-23T13:55:58.146Z,14.20
2018-06-23T13:58:27.235Z,14.20
2018-06-23T14:00:56.408Z,14.30
2018-06-23T14:03:25.418Z,14.30
2018-06-23T14:05:54.403Z,14.50
2018-06-23T14:08:23.410Z,14.60
2018-06-23T14:10:52.373Z,14.60
2018-06-23T14:13:21.391Z,14.60
2018-06-23T14:15:50.359Z,14.50
2018-06-23T14:18:19.314Z,14.60
2018-06-23T14:20:48.456Z,14.70
2018-06-23T14:23:17.467Z,14.90
2018-06-23T14:25:46.478Z,14.90
2018-06-23T14:28:16.466Z,15.00
2018-06-23T14:30:45.470Z,14.70
2018-06-23T14:33:14.512Z,14.50
2018-06-23T14:35:43.674Z,14.40
2018-06-23T14:38:12.750Z,14.30
2018-06-23T14:40:41.739Z,14.00
2018-06-23T14:43:10.716Z,14.00
2018-06-23T14:45:39.685Z,13.80
2018-06-23T14:48:08.740Z,13.90
2018-06-23T14:50:37.780Z,13.90
2018-06-23T14:53:06.756Z,13.90
2018-06-23T14:55:35.810Z,13.80
2018-06-23T14:58:04.804Z,13.80
2018-06-23T15:00:33.771Z,14.00
2018-06-23T15:03:02.726Z,14.10
2018-06-23T15:05:31.678Z,14.00
2018-06-23T15:08:12.062Z,14.10
2018-06-23T15:10:52.419Z,14.10
2018-06-23T15:13:21.482Z,14.20
2018-06-23T15:15:50.489Z,14.30
2018-06-23T15:18:19.486Z,14.50
2018-06-23T15:20:48.452Z,14.30
2018-06-23T15:23:17.439Z,14.30
2018-06-23T15:25:46.394Z,14.10
2018-06-23T15:28:15.431Z,14.00
2018-06-23T15:30:44.425Z,13.40
2018-06-23T15:33:13.410Z,13.00
2018-06-23T15:35:42.404Z,12.60
2018-06-23T15:38:11.470Z,12.60
2018-06-23T15:40:40.463Z,12.60
2018-06-23T15:43:09.317Z,12.60
2018-06-23T15:45:38.332Z,12.60
2018-06-23T15:48:07.322Z,12.80
2018-06-23T15:50:36.283Z,12.80
2018-06-23T15:53:05.299Z,12.90
2018-06-23T15:55:34.229Z,13.10
2018-06-23T15:58:03.237Z,13.20
2018-06-23T16:00:32.242Z,13.30
2018-06-23T16:03:01.247Z,13.20
2018-06-23T16:05:30.300Z,13.30
2018-06-23T16:10:34.648Z,13.40
2018-06-23T16:13:03.598Z,13.30
2018-06-23T16:15:32.589Z,13.40
2018-06-23T16:18:01.554Z,13.40
2018-06-23T16:20:30.539Z,13.40
2018-06-23T16:22:59.665Z,13.50
2018-06-23T16:25:28.634Z,13.50
2018-06-23T16:27:57.681Z,13.40
2018-06-23T16:30:26.659Z,13.30
2018-06-23T16:32:55.637Z,13.10
2018-06-23T16:35:25.218Z,13.20
2018-06-23T16:37:53.852Z,13.20
2018-06-23T16:40:22.879Z,13.20
2018-06-23T16:42:51.870Z,13.20
2018-06-23T16:45:20.817Z,13.20
2018-06-23T16:47:49.800Z,13.20
2018-06-23T16:50:19.090Z,13.30
2018-06-23T16:52:48.054Z,13.30
2018-06-23T16:55:17.261Z,13.30
2018-06-23T16:57:46.267Z,13.30
2018-06-23T17:00:15.395Z,13.30
2018-06-23T17:02:44.366Z,13.30
2018-06-23T17:05:13.452Z,13.20
2018-06-23T17:07:42.434Z,13.20
2018-06-23T17:10:11.398Z,13.20
2018-06-23T17:12:40.423Z,13.30
2018-06-23T17:15:09.405Z,13.30
2018-06-23T17:17:38.407Z,13.30
2018-06-23T17:20:07.402Z,13.40
2018-06-23T17:22:36.371Z,13.30
2018-06-23T17:25:05.478Z,13.20
2018-06-23T17:27:34.465Z,13.20
2018-06-23T17:30:04.723Z,13.10
2018-06-23T17:32:33.714Z,13.10
2018-06-23T17:35:02.674Z,13.20
2018-06-23T17:37:31.661Z,13.20
2018-06-23T17:40:00.611Z,13.20
2018-06-23T17:42:29.667Z,13.30
2018-06-23T17:44:58.650Z,13.30
2018-06-23T17:47:27.660Z,13.30
2018-06-23T17:49:56.710Z,13.30
2018-06-23T17:52:25.683Z,13.30
2018-06-23T17:54:54.690Z,13.30
2018-06-23T17:57:23.672Z,13.40
2018-06-23T17:59:52.663Z,13.40
2018-06-23T18:02:21.671Z,13.40
2018-06-23T18:04:50.636Z,13.40
2018-06-23T18:07:19.616Z,13.30
2018-06-23T18:09:48.559Z,13.30
2018-06-23T18:12:17.761Z,13.40
2018-06-23T18:14:46.646Z,13.40
2018-06-23T18:17:15.659Z,13.40
2018-06-23T18:19:44.638Z,13.40
2018-06-23T18:22:13.763Z,13.40
2018-06-23T18:24:42.733Z,13.40
2018-06-23T18:27:11.939Z,13.40
2018-06-23T18:29:40.930Z,13.30
2018-06-23T18:32:09.904Z,13.40
2018-06-23T18:34:38.931Z,13.40
2018-06-23T18:37:07.926Z,13.50
2018-06-23T18:39:36.886Z,13.50
2018-06-23T18:42:05.851Z,13.50
2018-06-23T18:44:34.806Z,13.40
2018-06-23T18:47:03.870Z,13.30
2018-06-23T18:49:32.856Z,13.30
2018-06-23T18:52:01.869Z,13.30
2018-06-23T18:54:30.850Z,13.40
2018-06-23T18:56:59.863Z,13.40
2018-06-23T18:59:28.863Z,13.50
2018-06-23T19:01:57.851Z,13.40
2018-06-23T19:04:26.819Z,13.40
2018-06-23T19:06:55.982Z,13.40
2018-06-23T19:09:25.142Z,13.40
2018-06-23T19:11:54.062Z,13.40
2018-06-23T19:14:23.080Z,13.40
2018-06-23T19:16:52.084Z,13.30
2018-06-23T19:19:21.270Z,13.30
2018-06-23T19:21:50.315Z,13.30
2018-06-23T19:24:19.308Z,13.40
2018-06-23T19:26:48.338Z,13.40
2018-06-23T19:29:17.357Z,13.30
2018-06-23T19:31:46.352Z,13.30
2018-06-23T19:34:15.969Z,13.30
2018-06-23T19:36:44.939Z,13.30
2018-06-23T19:39:13.942Z,13.30
2018-06-23T19:41:42.936Z,13.30
2018-06-23T19:44:11.932Z,13.30
2018-06-23T19:46:40.896Z,13.30
2018-06-23T19:49:09.935Z,13.30
2018-06-23T19:51:38.926Z,13.30
2018-06-23T19:54:07.902Z,13.30
2018-06-23T19:56:36.903Z,13.30
2018-06-23T19:59:06.022Z,13.30
2018-06-23T20:01:35.068Z,13.30
2018-06-23T20:04:04.022Z,13.30
2018-06-23T20:06:33.011Z,13.30
2018-06-23T20:09:01.991Z,13.30
2018-06-23T20:11:30.962Z,13.30
2018-06-23T20:13:59.943Z,13.30
2018-06-23T20:16:28.912Z,13.30
2018-06-23T20:18:57.889Z,13.20
2018-06-23T20:21:26.894Z,13.20
2018-06-23T20:23:55.890Z,13.20
2018-06-23T20:26:25.126Z,13.20
2018-06-23T20:28:54.118Z,13.10
2018-06-23T20:31:23.326Z,13.10
2018-06-23T20:33:52.306Z,13.10
2018-06-23T20:36:21.278Z,13.10
2018-06-23T20:38:50.229Z,13.10
2018-06-23T20:41:19.321Z,13.10
2018-06-23T20:43:48.293Z,13.00
2018-06-23T20:46:17.283Z,13.00
2018-06-23T20:48:46.255Z,12.90
2018-06-23T20:51:15.266Z,12.90
2018-06-23T20:53:44.252Z,12.90
2018-06-23T20:56:13.211Z,12.90
2018-06-23T20:58:42.175Z,12.90
2018-06-23T21:01:11.186Z,12.90
2018-06-23T21:03:40.127Z,12.90
2018-06-23T21:06:09.136Z,13.00
2018-06-23T21:08:38.214Z,13.00
2018-06-23T21:11:07.343Z,13.00
2018-06-23T21:13:36.275Z,13.00
2018-06-23T21:16:05.489Z,13.00
2018-06-23T21:18:34.434Z,13.00
2018-06-23T21:21:03.613Z,13.00
2018-06-23T21:23:32.545Z,13.00
2018-06-23T21:26:01.559Z,13.00
2018-06-23T21:28:30.516Z,13.00
2018-06-23T21:30:59.624Z,13.00
2018-06-23T21:33:28.798Z,13.00
2018-06-23T21:35:57.819Z,12.90
2018-06-23T21:38:26.995Z,12.90
2018-06-23T21:40:56.043Z,12.90
2018-06-23T21:43:25.268Z,13.00
2018-06-23T21:45:54.206Z,13.00
2018-06-23T21:48:23.247Z,13.00
2018-06-23T21:50:52.177Z,13.00
2018-06-23T21:53:21.285Z,13.00
2018-06-23T21:55:50.271Z,13.00
2018-06-23T21:58:19.237Z,13.00
2018-06-23T22:00:48.206Z,13.00
2018-06-23T22:03:17.303Z,13.00
2018-06-23T22:05:46.315Z,13.00
2018-06-23T22:08:15.391Z,13.10
2018-06-23T22:10:44.358Z,13.00
2018-06-23T22:13:13.352Z,13.00
2018-06-23T22:15:42.339Z,13.00
2018-06-23T22:18:11.401Z,13.00
2018-06-23T22:20:40.344Z,13.00
2018-06-23T22:23:09.357Z,13.00
2018-06-23T22:25:38.349Z,12.90
2018-06-23T22:28:07.437Z,12.90
2018-06-23T22:30:36.518Z,12.90
2018-06-23T22:33:05.556Z,12.90
2018-06-23T22:35:34.634Z,12.90
2018-06-23T22:38:03.682Z,12.90
2018-06-23T22:40:32.707Z,12.90
2018-06-23T22:43:01.702Z,12.80
2018-06-23T22:45:30.777Z,12.70
2018-06-23T22:47:59.946Z,12.70
2018-06-23T22:50:28.958Z,12.70
2018-06-23T22:52:58.427Z,12.70
2018-06-23T22:58:05.741Z,12.70
2018-06-23T23:00:34.702Z,12.70
2018-06-23T23:03:03.755Z,12.70
2018-06-23T23:05:32.715Z,12.60
2018-06-23T23:08:01.719Z,12.50
2018-06-23T23:10:30.690Z,12.40
2018-06-23T23:12:59.647Z,12.40
2018-06-23T23:15:28.642Z,12.20
2018-06-23T23:17:57.670Z,12.20
2018-06-23T23:20:26.652Z,12.20
2018-06-23T23:22:55.647Z,12.10
2018-06-23T23:25:24.698Z,12.20
2018-06-23T23:27:53.679Z,12.30
2018-06-23T23:30:22.724Z,12.30
2018-06-23T23:32:51.717Z,12.30
2018-06-23T23:35:20.685Z,12.30
2018-06-23T23:37:49.814Z,12.20
2018-06-23T23:40:18.762Z,12.20
2018-06-23T23:42:47.740Z,12.30
2018-06-23T23:45:16.747Z,12.30
2018-06-23T23:47:46.099Z,12.40
2018-06-23T23:50:15.068Z,12.30
2018-06-23T23:52:44.034Z,12.40
2018-06-23T23:55:13.012Z,12.30
2018-06-23T23:57:41.972Z,12.20
